sensor_id;sensor_type;location;lat;lon;timestamp;P1;durP1;ratioP1;P2;durP2;ratioP2
11018;SDS011;5563;52.296;6.806;2023-07-31T00:02:03;2.88;;;2.22;;
11018;SDS011;5563;52.296;6.806;2023-07-31T00:04:37;2.72;;;2.00;;
11018;SDS011;5563;52.296;6.806;2023-07-31T00:07:10;2.53;;;2.15;;
11018;SDS011;5563;52.296;6.806;2023-07-31T00:09:44;2.42;;;2.22;;
11018;SDS011;5563;52.296;6.806;2023-07-31T00:12:11;2.97;;;2.20;;
11018;SDS011;5563;52.296;6.806;2023-07-31T00:14:44;2.70;;;2.47;;
11018;SDS011;5563;52.296;6.806;2023-07-31T00:17:11;2.70;;;2.40;;
11018;SDS011;5563;52.296;6.806;2023-07-31T00:19:50;2.50;;;2.30;;
11018;SDS011;5563;52.296;6.806;2023-07-31T00:22:17;2.45;;;2.17;;
11018;SDS011;5563;52.296;6.806;2023-07-31T00:24:51;2.75;;;2.40;;
11018;SDS011;5563;52.296;6.806;2023-07-31T00:27:17;2.47;;;2.05;;
11018;SDS011;5563;52.296;6.806;2023-07-31T00:29:51;3.38;;;2.05;;
11018;SDS011;5563;52.296;6.806;2023-07-31T00:32:18;2.45;;;2.13;;
11018;SDS011;5563;52.296;6.806;2023-07-31T00:34:52;2.30;;;2.10;;
11018;SDS011;5563;52.296;6.806;2023-07-31T00:37:19;2.53;;;1.98;;
11018;SDS011;5563;52.296;6.806;2023-07-31T00:39:52;2.45;;;2.25;;
11018;SDS011;5563;52.296;6.806;2023-07-31T00:42:28;2.22;;;2.03;;
11018;SDS011;5563;52.296;6.806;2023-07-31T00:44:55;2.33;;;2.13;;
11018;SDS011;5563;52.296;6.806;2023-07-31T00:47:29;2.25;;;2.05;;
11018;SDS011;5563;52.296;6.806;2023-07-31T00:49:56;2.38;;;2.17;;
11018;SDS011;5563;52.296;6.806;2023-07-31T00:52:30;2.15;;;2.00;;
11018;SDS011;5563;52.296;6.806;2023-07-31T00:54:57;1.90;;;1.80;;
11018;SDS011;5563;52.296;6.806;2023-07-31T00:57:30;2.15;;;1.95;;
11018;SDS011;5563;52.296;6.806;2023-07-31T00:59:59;2.70;;;1.92;;
11018;SDS011;5563;52.296;6.806;2023-07-31T01:02:37;2.00;;;1.80;;
11018;SDS011;5563;52.296;6.806;2023-07-31T01:05:04;1.77;;;1.63;;
11018;SDS011;5563;52.296;6.806;2023-07-31T01:07:45;1.73;;;1.63;;
11018;SDS011;5563;52.296;6.806;2023-07-31T01:10:20;1.50;;;1.40;;
11018;SDS011;5563;52.296;6.806;2023-07-31T01:12:56;1.65;;;1.55;;
11018;SDS011;5563;52.296;6.806;2023-07-31T01:15:31;1.73;;;1.60;;
11018;SDS011;5563;52.296;6.806;2023-07-31T01:18:05;1.90;;;1.80;;
11018;SDS011;5563;52.296;6.806;2023-07-31T01:20:41;1.70;;;1.60;;
11018;SDS011;5563;52.296;6.806;2023-07-31T01:27:07;1.80;;;1.70;;
11018;SDS011;5563;52.296;6.806;2023-07-31T01:29:48;2.60;;;1.80;;
11018;SDS011;5563;52.296;6.806;2023-07-31T01:32:27;2.03;;;1.85;;
11018;SDS011;5563;52.296;6.806;2023-07-31T01:35:02;2.25;;;2.00;;
11018;SDS011;5563;52.296;6.806;2023-07-31T01:37:53;1.40;;;1.30;;
11018;SDS011;5563;52.296;6.806;2023-07-31T01:43:51;1.65;;;1.13;;
11018;SDS011;5563;52.296;6.806;2023-07-31T01:46:25;1.38;;;1.10;;
11018;SDS011;5563;52.296;6.806;2023-07-31T01:48:52;1.40;;;1.30;;
11018;SDS011;5563;52.296;6.806;2023-07-31T01:51:26;1.13;;;1.05;;
11018;SDS011;5563;52.296;6.806;2023-07-31T01:54:15;0.80;;;0.80;;
11018;SDS011;5563;52.296;6.806;2023-07-31T01:56:49;1.02;;;0.93;;
11018;SDS011;5563;52.296;6.806;2023-07-31T01:59:16;0.90;;;0.90;;
11018;SDS011;5563;52.296;6.806;2023-07-31T02:01:49;0.90;;;0.90;;
11018;SDS011;5563;52.296;6.806;2023-07-31T02:04:23;1.30;;;0.90;;
11018;SDS011;5563;52.296;6.806;2023-07-31T02:07:02;0.90;;;0.77;;
11018;SDS011;5563;52.296;6.806;2023-07-31T02:09:36;1.05;;;0.70;;
11018;SDS011;5563;52.296;6.806;2023-07-31T02:12:10;1.67;;;0.70;;
11018;SDS011;5563;52.296;6.806;2023-07-31T02:14:43;0.75;;;0.75;;
11018;SDS011;5563;52.296;6.806;2023-07-31T02:17:10;1.17;;;0.68;;
11018;SDS011;5563;52.296;6.806;2023-07-31T02:19:43;0.93;;;0.70;;
11018;SDS011;5563;52.296;6.806;2023-07-31T02:22:22;1.52;;;0.80;;
11018;SDS011;5563;52.296;6.806;2023-07-31T02:24:56;0.90;;;0.80;;
11018;SDS011;5563;52.296;6.806;2023-07-31T02:27:23;1.35;;;0.90;;
11018;SDS011;5563;52.296;6.806;2023-07-31T02:30:00;0.70;;;0.70;;
11018;SDS011;5563;52.296;6.806;2023-07-31T02:32:26;1.17;;;0.90;;
11018;SDS011;5563;52.296;6.806;2023-07-31T02:35:00;1.05;;;0.90;;
11018;SDS011;5563;52.296;6.806;2023-07-31T02:37:27;1.48;;;0.95;;
11018;SDS011;5563;52.296;6.806;2023-07-31T02:40:02;0.95;;;0.88;;
11018;SDS011;5563;52.296;6.806;2023-07-31T02:42:29;1.20;;;1.10;;
11018;SDS011;5563;52.296;6.806;2023-07-31T02:45:02;2.28;;;1.13;;
11018;SDS011;5563;52.296;6.806;2023-07-31T02:47:36;1.77;;;1.30;;
11018;SDS011;5563;52.296;6.806;2023-07-31T02:50:03;2.85;;;1.35;;
11018;SDS011;5563;52.296;6.806;2023-07-31T02:52:37;2.45;;;1.88;;
11018;SDS011;5563;52.296;6.806;2023-07-31T02:55:04;4.90;;;2.10;;
11018;SDS011;5563;52.296;6.806;2023-07-31T02:57:37;4.10;;;2.50;;
11018;SDS011;5563;52.296;6.806;2023-07-31T03:00:10;3.42;;;2.75;;
11018;SDS011;5563;52.296;6.806;2023-07-31T03:02:51;3.38;;;2.97;;
11018;SDS011;5563;52.296;6.806;2023-07-31T03:05:18;3.38;;;2.63;;
11018;SDS011;5563;52.296;6.806;2023-07-31T03:07:51;3.30;;;2.55;;
11018;SDS011;5563;52.296;6.806;2023-07-31T03:10:18;2.88;;;2.55;;
11018;SDS011;5563;52.296;6.806;2023-07-31T03:12:51;4.13;;;2.38;;
11018;SDS011;5563;52.296;6.806;2023-07-31T03:15:18;3.45;;;2.17;;
11018;SDS011;5563;52.296;6.806;2023-07-31T03:17:51;3.28;;;2.28;;
11018;SDS011;5563;52.296;6.806;2023-07-31T03:20:24;3.28;;;2.42;;
11018;SDS011;5563;52.296;6.806;2023-07-31T03:22:58;2.75;;;2.25;;
11018;SDS011;5563;52.296;6.806;2023-07-31T03:25:41;3.35;;;2.50;;
11018;SDS011;5563;52.296;6.806;2023-07-31T03:28:21;5.40;;;2.67;;
11018;SDS011;5563;52.296;6.806;2023-07-31T03:30:55;2.90;;;2.40;;
11018;SDS011;5563;52.296;6.806;2023-07-31T03:33:22;2.97;;;2.33;;
11018;SDS011;5563;52.296;6.806;2023-07-31T03:35:56;4.13;;;2.80;;
11018;SDS011;5563;52.296;6.806;2023-07-31T03:38:23;4.80;;;2.90;;
11018;SDS011;5563;52.296;6.806;2023-07-31T03:40:57;6.25;;;3.60;;
11018;SDS011;5563;52.296;6.806;2023-07-31T03:43:32;5.30;;;3.70;;
11018;SDS011;5563;52.296;6.806;2023-07-31T03:46:06;6.18;;;3.80;;
11018;SDS011;5563;52.296;6.806;2023-07-31T03:48:33;4.57;;;3.58;;
11018;SDS011;5563;52.296;6.806;2023-07-31T03:51:06;4.47;;;3.53;;
11018;SDS011;5563;52.296;6.806;2023-07-31T03:53:33;6.53;;;4.50;;
11018;SDS011;5563;52.296;6.806;2023-07-31T03:56:06;10.00;;;5.40;;
11018;SDS011;5563;52.296;6.806;2023-07-31T03:58:33;8.27;;;5.22;;
11018;SDS011;5563;52.296;6.806;2023-07-31T04:01:06;7.75;;;5.60;;
11018;SDS011;5563;52.296;6.806;2023-07-31T04:03:39;11.95;;;6.63;;
11018;SDS011;5563;52.296;6.806;2023-07-31T04:06:12;14.48;;;6.93;;
11018;SDS011;5563;52.296;6.806;2023-07-31T04:08:46;18.50;;;8.55;;
11018;SDS011;5563;52.296;6.806;2023-07-31T04:11:13;15.73;;;8.77;;
11018;SDS011;5563;52.296;6.806;2023-07-31T04:13:46;15.95;;;8.05;;
11018;SDS011;5563;52.296;6.806;2023-07-31T04:16:13;18.35;;;8.82;;
11018;SDS011;5563;52.296;6.806;2023-07-31T04:18:46;15.10;;;8.30;;
11018;SDS011;5563;52.296;6.806;2023-07-31T04:21:13;16.23;;;8.80;;
11018;SDS011;5563;52.296;6.806;2023-07-31T04:23:53;16.17;;;9.07;;
11018;SDS011;5563;52.296;6.806;2023-07-31T04:26:22;18.58;;;9.75;;
11018;SDS011;5563;52.296;6.806;2023-07-31T04:28:56;18.83;;;9.80;;
11018;SDS011;5563;52.296;6.806;2023-07-31T04:31:23;17.75;;;9.20;;
11018;SDS011;5563;52.296;6.806;2023-07-31T04:33:57;22.05;;;10.02;;
11018;SDS011;5563;52.296;6.806;2023-07-31T04:36:24;20.50;;;11.43;;
11018;SDS011;5563;52.296;6.806;2023-07-31T04:38:57;20.23;;;10.95;;
11018;SDS011;5563;52.296;6.806;2023-07-31T04:41:30;23.95;;;11.75;;
11018;SDS011;5563;52.296;6.806;2023-07-31T04:44:04;21.02;;;10.73;;
11018;SDS011;5563;52.296;6.806;2023-07-31T04:46:31;20.63;;;11.68;;
11018;SDS011;5563;52.296;6.806;2023-07-31T04:49:04;20.10;;;11.90;;
11018;SDS011;5563;52.296;6.806;2023-07-31T04:51:38;26.13;;;11.60;;
11018;SDS011;5563;52.296;6.806;2023-07-31T04:54:05;22.15;;;11.98;;
11018;SDS011;5563;52.296;6.806;2023-07-31T04:56:38;20.35;;;11.55;;
11018;SDS011;5563;52.296;6.806;2023-07-31T04:59:05;22.23;;;10.75;;
11018;SDS011;5563;52.296;6.806;2023-07-31T05:01:39;25.05;;;11.85;;
11018;SDS011;5563;52.296;6.806;2023-07-31T05:04:06;27.33;;;11.77;;
11018;SDS011;5563;52.296;6.806;2023-07-31T05:06:39;19.25;;;10.48;;
11018;SDS011;5563;52.296;6.806;2023-07-31T05:09:07;19.25;;;10.85;;
11018;SDS011;5563;52.296;6.806;2023-07-31T05:11:42;18.77;;;9.68;;
11018;SDS011;5563;52.296;6.806;2023-07-31T05:14:16;21.60;;;10.65;;
11018;SDS011;5563;52.296;6.806;2023-07-31T05:16:49;18.90;;;9.32;;
11018;SDS011;5563;52.296;6.806;2023-07-31T05:19:28;20.67;;;10.00;;
11018;SDS011;5563;52.296;6.806;2023-07-31T05:22:09;20.02;;;9.70;;
11018;SDS011;5563;52.296;6.806;2023-07-31T05:24:42;24.63;;;10.02;;
11018;SDS011;5563;52.296;6.806;2023-07-31T05:27:08;15.93;;;8.95;;
11018;SDS011;5563;52.296;6.806;2023-07-31T05:29:42;19.35;;;9.05;;
11018;SDS011;5563;52.296;6.806;2023-07-31T05:32:09;17.90;;;9.52;;
11018;SDS011;5563;52.296;6.806;2023-07-31T05:34:42;21.23;;;9.68;;
11018;SDS011;5563;52.296;6.806;2023-07-31T05:37:10;17.65;;;8.88;;
11018;SDS011;5563;52.296;6.806;2023-07-31T05:39:44;20.02;;;8.93;;
11018;SDS011;5563;52.296;6.806;2023-07-31T05:42:11;18.95;;;9.07;;
11018;SDS011;5563;52.296;6.806;2023-07-31T05:44:45;20.48;;;8.93;;
11018;SDS011;5563;52.296;6.806;2023-07-31T05:47:12;16.88;;;8.55;;
11018;SDS011;5563;52.296;6.806;2023-07-31T05:49:45;18.08;;;8.30;;
11018;SDS011;5563;52.296;6.806;2023-07-31T05:52:12;19.88;;;9.65;;
11018;SDS011;5563;52.296;6.806;2023-07-31T05:54:45;20.67;;;9.75;;
11018;SDS011;5563;52.296;6.806;2023-07-31T05:57:19;17.77;;;9.05;;
11018;SDS011;5563;52.296;6.806;2023-07-31T05:59:46;19.75;;;8.63;;
11018;SDS011;5563;52.296;6.806;2023-07-31T06:02:20;19.77;;;9.25;;
11018;SDS011;5563;52.296;6.806;2023-07-31T06:04:47;17.02;;;8.85;;
11018;SDS011;5563;52.296;6.806;2023-07-31T06:07:20;16.88;;;9.10;;
11018;SDS011;5563;52.296;6.806;2023-07-31T06:09:47;19.98;;;8.63;;
11018;SDS011;5563;52.296;6.806;2023-07-31T06:12:21;17.73;;;9.27;;
11018;SDS011;5563;52.296;6.806;2023-07-31T06:14:48;17.73;;;9.15;;
11018;SDS011;5563;52.296;6.806;2023-07-31T06:17:22;16.30;;;8.32;;
11018;SDS011;5563;52.296;6.806;2023-07-31T06:19:56;19.50;;;8.50;;
11018;SDS011;5563;52.296;6.806;2023-07-31T06:22:30;17.52;;;8.88;;
11018;SDS011;5563;52.296;6.806;2023-07-31T06:24:58;19.85;;;8.82;;
11018;SDS011;5563;52.296;6.806;2023-07-31T06:27:25;17.85;;;8.50;;
11018;SDS011;5563;52.296;6.806;2023-07-31T06:29:58;16.45;;;8.30;;
11018;SDS011;5563;52.296;6.806;2023-07-31T06:32:25;14.05;;;8.63;;
11018;SDS011;5563;52.296;6.806;2023-07-31T06:34:59;15.77;;;8.07;;
11018;SDS011;5563;52.296;6.806;2023-07-31T06:37:26;17.73;;;9.05;;
11018;SDS011;5563;52.296;6.806;2023-07-31T06:40:03;15.15;;;7.95;;
11018;SDS011;5563;52.296;6.806;2023-07-31T06:42:38;14.60;;;8.13;;
11018;SDS011;5563;52.296;6.806;2023-07-31T06:45:05;15.10;;;8.00;;
11018;SDS011;5563;52.296;6.806;2023-07-31T06:47:40;12.93;;;7.28;;
11018;SDS011;5563;52.296;6.806;2023-07-31T06:50:10;16.65;;;7.97;;
11018;SDS011;5563;52.296;6.806;2023-07-31T06:52:43;13.52;;;7.68;;
11018;SDS011;5563;52.296;6.806;2023-07-31T06:55:20;13.98;;;7.38;;
11018;SDS011;5563;52.296;6.806;2023-07-31T06:57:51;13.00;;;7.70;;
11018;SDS011;5563;52.296;6.806;2023-07-31T07:00:26;11.98;;;6.85;;
11018;SDS011;5563;52.296;6.806;2023-07-31T07:03:00;14.45;;;7.68;;
11018;SDS011;5563;52.296;6.806;2023-07-31T07:05:33;14.20;;;7.03;;
11018;SDS011;5563;52.296;6.806;2023-07-31T07:08:07;11.05;;;6.80;;
11018;SDS011;5563;52.296;6.806;2023-07-31T07:10:34;13.68;;;6.88;;
11018;SDS011;5563;52.296;6.806;2023-07-31T07:13:14;10.43;;;6.35;;
11018;SDS011;5563;52.296;6.806;2023-07-31T07:15:41;12.38;;;6.25;;
11018;SDS011;5563;52.296;6.806;2023-07-31T07:18:17;11.98;;;6.68;;
11018;SDS011;5563;52.296;6.806;2023-07-31T07:20:51;10.43;;;5.72;;
11018;SDS011;5563;52.296;6.806;2023-07-31T07:23:35;11.50;;;5.72;;
11018;SDS011;5563;52.296;6.806;2023-07-31T07:26:02;8.60;;;5.63;;
11018;SDS011;5563;52.296;6.806;2023-07-31T07:28:35;10.98;;;5.38;;
11018;SDS011;5563;52.296;6.806;2023-07-31T07:31:10;8.35;;;5.13;;
11018;SDS011;5563;52.296;6.806;2023-07-31T07:33:37;9.63;;;5.50;;
11018;SDS011;5563;52.296;6.806;2023-07-31T07:36:11;10.63;;;5.25;;
11018;SDS011;5563;52.296;6.806;2023-07-31T07:38:39;8.77;;;5.18;;
11018;SDS011;5563;52.296;6.806;2023-07-31T07:41:14;8.98;;;4.80;;
11018;SDS011;5563;52.296;6.806;2023-07-31T07:43:41;9.45;;;5.18;;
11018;SDS011;5563;52.296;6.806;2023-07-31T07:46:14;8.23;;;5.10;;
11018;SDS011;5563;52.296;6.806;2023-07-31T07:48:41;6.00;;;4.65;;
11018;SDS011;5563;52.296;6.806;2023-07-31T07:51:14;8.00;;;4.60;;
11018;SDS011;5563;52.296;6.806;2023-07-31T07:53:46;7.60;;;4.63;;
11018;SDS011;5563;52.296;6.806;2023-07-31T07:56:29;9.38;;;4.38;;
11018;SDS011;5563;52.296;6.806;2023-07-31T07:58:56;8.82;;;4.63;;
11018;SDS011;5563;52.296;6.806;2023-07-31T08:01:29;8.77;;;4.10;;
11018;SDS011;5563;52.296;6.806;2023-07-31T08:04:02;6.30;;;4.05;;
11018;SDS011;5563;52.296;6.806;2023-07-31T08:06:37;5.60;;;3.65;;
11018;SDS011;5563;52.296;6.806;2023-07-31T08:09:10;4.78;;;3.28;;
11018;SDS011;5563;52.296;6.806;2023-07-31T08:11:37;3.92;;;3.25;;
11018;SDS011;5563;52.296;6.806;2023-07-31T08:14:10;4.47;;;3.10;;
11018;SDS011;5563;52.296;6.806;2023-07-31T08:16:37;4.63;;;2.95;;
11018;SDS011;5563;52.296;6.806;2023-07-31T08:19:11;6.05;;;4.95;;
11018;SDS011;5563;52.296;6.806;2023-07-31T08:21:44;5.95;;;5.00;;
11018;SDS011;5563;52.296;6.806;2023-07-31T08:24:25;5.78;;;3.00;;
11018;SDS011;5563;52.296;6.806;2023-07-31T08:26:52;4.80;;;3.00;;
11018;SDS011;5563;52.296;6.806;2023-07-31T08:29:25;4.13;;;3.03;;
11018;SDS011;5563;52.296;6.806;2023-07-31T08:31:59;4.47;;;2.75;;
11018;SDS011;5563;52.296;6.806;2023-07-31T08:34:33;2.80;;;2.50;;
11018;SDS011;5563;52.296;6.806;2023-07-31T08:37:00;3.60;;;2.20;;
11018;SDS011;5563;52.296;6.806;2023-07-31T08:39:36;2.92;;;2.50;;
11018;SDS011;5563;52.296;6.806;2023-07-31T08:42:09;2.85;;;2.42;;
11018;SDS011;5563;52.296;6.806;2023-07-31T08:44:43;3.50;;;2.42;;
11018;SDS011;5563;52.296;6.806;2023-07-31T08:47:10;2.75;;;2.20;;
11018;SDS011;5563;52.296;6.806;2023-07-31T08:49:38;4.07;;;2.38;;
11018;SDS011;5563;52.296;6.806;2023-07-31T08:52:11;2.67;;;2.05;;
11018;SDS011;5563;52.296;6.806;2023-07-31T08:54:38;3.67;;;2.30;;
11018;SDS011;5563;52.296;6.806;2023-07-31T08:57:12;2.20;;;2.00;;
11018;SDS011;5563;52.296;6.806;2023-07-31T08:59:40;2.08;;;1.88;;
11018;SDS011;5563;52.296;6.806;2023-07-31T09:02:23;2.05;;;1.85;;
11018;SDS011;5563;52.296;6.806;2023-07-31T09:05:11;1.83;;;1.50;;
11018;SDS011;5563;52.296;6.806;2023-07-31T09:07:45;1.60;;;1.50;;
11018;SDS011;5563;52.296;6.806;2023-07-31T09:10:17;1.60;;;1.50;;
11018;SDS011;5563;52.296;6.806;2023-07-31T09:12:50;2.08;;;1.65;;
11018;SDS011;5563;52.296;6.806;2023-07-31T09:15:18;1.30;;;1.20;;
11018;SDS011;5563;52.296;6.806;2023-07-31T09:18:03;1.60;;;1.50;;
11018;SDS011;5563;52.296;6.806;2023-07-31T09:20:32;1.92;;;1.70;;
11018;SDS011;5563;52.296;6.806;2023-07-31T09:23:13;1.67;;;1.48;;
11018;SDS011;5563;52.296;6.806;2023-07-31T09:25:45;1.70;;;1.50;;
11018;SDS011;5563;52.296;6.806;2023-07-31T09:28:19;3.63;;;2.80;;
11018;SDS011;5563;52.296;6.806;2023-07-31T09:30:50;3.65;;;3.15;;
11018;SDS011;5563;52.296;6.806;2023-07-31T09:33:24;1.80;;;1.70;;
11018;SDS011;5563;52.296;6.806;2023-07-31T09:35:58;2.45;;;1.90;;
11018;SDS011;5563;52.296;6.806;2023-07-31T09:38:33;2.03;;;1.80;;
11018;SDS011;5563;52.296;6.806;2023-07-31T09:41:12;1.90;;;1.80;;
11018;SDS011;5563;52.296;6.806;2023-07-31T09:43:52;2.33;;;1.90;;
11018;SDS011;5563;52.296;6.806;2023-07-31T09:46:21;2.22;;;2.03;;
11018;SDS011;5563;52.296;6.806;2023-07-31T09:49:02;1.90;;;1.80;;
11018;SDS011;5563;52.296;6.806;2023-07-31T09:51:41;2.65;;;1.88;;
11018;SDS011;5563;52.296;6.806;2023-07-31T09:54:16;2.10;;;1.95;;
11018;SDS011;5563;52.296;6.806;2023-07-31T09:56:44;3.28;;;3.03;;
11018;SDS011;5563;52.296;6.806;2023-07-31T09:59:18;2.08;;;1.92;;
11018;SDS011;5563;52.296;6.806;2023-07-31T10:01:52;3.63;;;3.33;;
11018;SDS011;5563;52.296;6.806;2023-07-31T10:04:29;2.30;;;2.10;;
11018;SDS011;5563;52.296;6.806;2023-07-31T10:07:04;2.85;;;2.17;;
11018;SDS011;5563;52.296;6.806;2023-07-31T10:09:31;2.40;;;2.20;;
11018;SDS011;5563;52.296;6.806;2023-07-31T10:12:22;2.88;;;2.67;;
11018;SDS011;5563;52.296;6.806;2023-07-31T10:14:58;2.95;;;2.53;;
11018;SDS011;5563;52.296;6.806;2023-07-31T10:17:42;2.60;;;2.40;;
11018;SDS011;5563;52.296;6.806;2023-07-31T10:20:10;2.97;;;2.78;;
11018;SDS011;5563;52.296;6.806;2023-07-31T10:22:44;3.03;;;2.63;;
11018;SDS011;5563;52.296;6.806;2023-07-31T10:25:20;3.20;;;2.90;;
11018;SDS011;5563;52.296;6.806;2023-07-31T10:28:11;2.70;;;2.50;;
11018;SDS011;5563;52.296;6.806;2023-07-31T10:30:45;3.10;;;2.80;;
11018;SDS011;5563;52.296;6.806;2023-07-31T10:33:25;3.55;;;2.60;;
11018;SDS011;5563;52.296;6.806;2023-07-31T10:36:11;2.97;;;2.78;;
11018;SDS011;5563;52.296;6.806;2023-07-31T10:38:55;3.08;;;2.88;;
11018;SDS011;5563;52.296;6.806;2023-07-31T10:41:31;3.38;;;3.13;;
11018;SDS011;5563;52.296;6.806;2023-07-31T10:44:07;4.65;;;2.90;;
11018;SDS011;5563;52.296;6.806;2023-07-31T10:46:34;3.15;;;2.90;;
11018;SDS011;5563;52.296;6.806;2023-07-31T10:49:09;3.15;;;2.95;;
11018;SDS011;5563;52.296;6.806;2023-07-31T10:51:53;3.65;;;3.35;;
11018;SDS011;5563;52.296;6.806;2023-07-31T10:54:28;3.67;;;3.38;;
11018;SDS011;5563;52.296;6.806;2023-07-31T10:57:01;4.18;;;3.83;;
11018;SDS011;5563;52.296;6.806;2023-07-31T10:59:33;4.15;;;3.85;;
11018;SDS011;5563;52.296;6.806;2023-07-31T11:02:08;3.80;;;3.50;;
11018;SDS011;5563;52.296;6.806;2023-07-31T11:05:11;4.18;;;3.85;;
11018;SDS011;5563;52.296;6.806;2023-07-31T11:07:48;5.43;;;4.95;;
11018;SDS011;5563;52.296;6.806;2023-07-31T11:10:22;5.57;;;4.50;;
11018;SDS011;5563;52.296;6.806;2023-07-31T11:12:56;5.50;;;5.00;;
11018;SDS011;5563;52.296;6.806;2023-07-31T11:15:30;5.93;;;5.40;;
11018;SDS011;5563;52.296;6.806;2023-07-31T11:18:03;6.05;;;5.53;;
11018;SDS011;5563;52.296;6.806;2023-07-31T11:20:40;6.57;;;6.00;;
11018;SDS011;5563;52.296;6.806;2023-07-31T11:23:20;8.60;;;6.60;;
11018;SDS011;5563;52.296;6.806;2023-07-31T11:25:48;8.05;;;7.25;;
11018;SDS011;5563;52.296;6.806;2023-07-31T11:28:23;7.55;;;6.80;;
11018;SDS011;5563;52.296;6.806;2023-07-31T11:30:50;8.02;;;7.22;;
11018;SDS011;5563;52.296;6.806;2023-07-31T11:33:34;8.18;;;7.15;;
11018;SDS011;5563;52.296;6.806;2023-07-31T11:36:01;8.70;;;7.90;;
11018;SDS011;5563;52.296;6.806;2023-07-31T11:38:34;8.75;;;7.75;;
11018;SDS011;5563;52.296;6.806;2023-07-31T11:41:07;9.40;;;7.55;;
11018;SDS011;5563;52.296;6.806;2023-07-31T11:43:34;10.35;;;9.35;;
11018;SDS011;5563;52.296;6.806;2023-07-31T11:46:09;9.63;;;8.63;;
11018;SDS011;5563;52.296;6.806;2023-07-31T11:48:43;10.40;;;9.40;;
11018;SDS011;5563;52.296;6.806;2023-07-31T11:51:11;10.63;;;9.52;;
11018;SDS011;5563;52.296;6.806;2023-07-31T11:53:56;10.80;;;9.82;;
11018;SDS011;5563;52.296;6.806;2023-07-31T11:56:25;12.80;;;10.38;;
11018;SDS011;5563;52.296;6.806;2023-07-31T11:58:59;13.93;;;10.18;;
11018;SDS011;5563;52.296;6.806;2023-07-31T12:01:36;12.45;;;10.88;;
11018;SDS011;5563;52.296;6.806;2023-07-31T12:04:10;11.95;;;10.68;;
11018;SDS011;5563;52.296;6.806;2023-07-31T12:06:37;11.90;;;10.80;;
11018;SDS011;5563;52.296;6.806;2023-07-31T12:09:11;11.95;;;10.75;;
11018;SDS011;5563;52.296;6.806;2023-07-31T12:11:44;12.07;;;10.77;;
11018;SDS011;5563;52.296;6.806;2023-07-31T12:14:24;11.23;;;10.23;;
11018;SDS011;5563;52.296;6.806;2023-07-31T12:16:55;11.35;;;9.60;;
11018;SDS011;5563;52.296;6.806;2023-07-31T12:19:29;12.20;;;11.00;;
11018;SDS011;5563;52.296;6.806;2023-07-31T12:22:13;10.50;;;9.55;;
11018;SDS011;5563;52.296;6.806;2023-07-31T12:25:02;10.45;;;9.30;;
11018;SDS011;5563;52.296;6.806;2023-07-31T12:27:32;7.85;;;7.00;;
11018;SDS011;5563;52.296;6.806;2023-07-31T12:30:08;8.52;;;7.15;;
11018;SDS011;5563;52.296;6.806;2023-07-31T12:32:53;8.05;;;7.30;;
11018;SDS011;5563;52.296;6.806;2023-07-31T12:35:30;6.82;;;6.22;;
11018;SDS011;5563;52.296;6.806;2023-07-31T12:38:08;8.90;;;7.22;;
11018;SDS011;5563;52.296;6.806;2023-07-31T12:40:38;7.00;;;6.20;;
11018;SDS011;5563;52.296;6.806;2023-07-31T12:43:13;7.20;;;6.25;;
11018;SDS011;5563;52.296;6.806;2023-07-31T12:45:40;6.93;;;6.13;;
11018;SDS011;5563;52.296;6.806;2023-07-31T12:48:13;8.00;;;7.13;;
11018;SDS011;5563;52.296;6.806;2023-07-31T12:50:40;6.95;;;6.10;;
11018;SDS011;5563;52.296;6.806;2023-07-31T12:53:14;6.72;;;6.20;;
11018;SDS011;5563;52.296;6.806;2023-07-31T12:55:42;7.65;;;6.85;;
11018;SDS011;5563;52.296;6.806;2023-07-31T12:58:15;7.32;;;6.55;;
11018;SDS011;5563;52.296;6.806;2023-07-31T13:00:42;8.45;;;7.65;;
11018;SDS011;5563;52.296;6.806;2023-07-31T13:03:16;8.18;;;7.47;;
11018;SDS011;5563;52.296;6.806;2023-07-31T13:05:43;8.32;;;7.35;;
11018;SDS011;5563;52.296;6.806;2023-07-31T13:08:16;7.82;;;7.03;;
11018;SDS011;5563;52.296;6.806;2023-07-31T13:10:44;8.57;;;7.78;;
11018;SDS011;5563;52.296;6.806;2023-07-31T13:13:11;8.05;;;7.18;;
11018;SDS011;5563;52.296;6.806;2023-07-31T13:15:44;8.70;;;7.53;;
11018;SDS011;5563;52.296;6.806;2023-07-31T13:18:18;7.88;;;7.20;;
11018;SDS011;5563;52.296;6.806;2023-07-31T13:20:45;9.35;;;7.55;;
11018;SDS011;5563;52.296;6.806;2023-07-31T13:23:33;9.85;;;8.38;;
11018;SDS011;5563;52.296;6.806;2023-07-31T13:26:06;8.27;;;7.45;;
11018;SDS011;5563;52.296;6.806;2023-07-31T13:28:39;8.20;;;7.38;;
11018;SDS011;5563;52.296;6.806;2023-07-31T13:31:15;10.18;;;8.40;;
11018;SDS011;5563;52.296;6.806;2023-07-31T13:33:42;8.95;;;7.35;;
11018;SDS011;5563;52.296;6.806;2023-07-31T13:36:15;9.35;;;7.97;;
11018;SDS011;5563;52.296;6.806;2023-07-31T13:38:42;8.60;;;7.80;;
11018;SDS011;5563;52.296;6.806;2023-07-31T13:41:15;8.35;;;7.65;;
11018;SDS011;5563;52.296;6.806;2023-07-31T13:43:48;8.45;;;7.45;;
11018;SDS011;5563;52.296;6.806;2023-07-31T13:46:22;7.82;;;7.00;;
11018;SDS011;5563;52.296;6.806;2023-07-31T13:48:49;7.75;;;6.90;;
11018;SDS011;5563;52.296;6.806;2023-07-31T13:51:16;8.52;;;7.00;;
11018;SDS011;5563;52.296;6.806;2023-07-31T13:53:49;7.82;;;6.50;;
11018;SDS011;5563;52.296;6.806;2023-07-31T13:56:16;8.95;;;6.85;;
11018;SDS011;5563;52.296;6.806;2023-07-31T13:58:49;7.38;;;6.53;;
11018;SDS011;5563;52.296;6.806;2023-07-31T14:01:16;7.05;;;6.20;;
11018;SDS011;5563;52.296;6.806;2023-07-31T14:03:49;6.63;;;5.88;;
11018;SDS011;5563;52.296;6.806;2023-07-31T14:06:16;7.57;;;6.32;;
11018;SDS011;5563;52.296;6.806;2023-07-31T14:08:49;7.30;;;6.60;;
11018;SDS011;5563;52.296;6.806;2023-07-31T14:11:16;7.20;;;6.45;;
11018;SDS011;5563;52.296;6.806;2023-07-31T14:13:50;7.22;;;6.38;;
11018;SDS011;5563;52.296;6.806;2023-07-31T14:16:17;7.32;;;6.60;;
11018;SDS011;5563;52.296;6.806;2023-07-31T14:18:51;8.20;;;7.13;;
11018;SDS011;5563;52.296;6.806;2023-07-31T14:21:27;7.40;;;6.70;;
11018;SDS011;5563;52.296;6.806;2023-07-31T14:24:14;7.05;;;6.38;;
11018;SDS011;5563;52.296;6.806;2023-07-31T14:26:47;7.47;;;6.30;;
11018;SDS011;5563;52.296;6.806;2023-07-31T14:29:20;7.45;;;6.10;;
11018;SDS011;5563;52.296;6.806;2023-07-31T14:31:53;7.03;;;6.32;;
11018;SDS011;5563;52.296;6.806;2023-07-31T14:34:20;9.55;;;7.10;;
11018;SDS011;5563;52.296;6.806;2023-07-31T14:36:53;7.47;;;6.15;;
11018;SDS011;5563;52.296;6.806;2023-07-31T14:39:20;7.63;;;6.82;;
11018;SDS011;5563;52.296;6.806;2023-07-31T14:41:53;7.80;;;7.00;;
11018;SDS011;5563;52.296;6.806;2023-07-31T14:44:20;7.32;;;6.53;;
11018;SDS011;5563;52.296;6.806;2023-07-31T14:46:53;7.60;;;6.43;;
11018;SDS011;5563;52.296;6.806;2023-07-31T14:49:20;7.22;;;6.50;;
11018;SDS011;5563;52.296;6.806;2023-07-31T14:51:54;9.10;;;6.38;;
11018;SDS011;5563;52.296;6.806;2023-07-31T14:54:21;7.55;;;6.18;;
11018;SDS011;5563;52.296;6.806;2023-07-31T14:56:48;7.65;;;6.30;;
11018;SDS011;5563;52.296;6.806;2023-07-31T14:59:21;7.50;;;5.70;;
11018;SDS011;5563;52.296;6.806;2023-07-31T15:01:54;6.22;;;5.63;;
11018;SDS011;5563;52.296;6.806;2023-07-31T15:04:27;6.90;;;5.82;;
11018;SDS011;5563;52.296;6.806;2023-07-31T15:06:54;5.80;;;4.97;;
11018;SDS011;5563;52.296;6.806;2023-07-31T15:09:27;5.00;;;4.60;;
11018;SDS011;5563;52.296;6.806;2023-07-31T15:11:55;5.22;;;4.72;;
11018;SDS011;5563;52.296;6.806;2023-07-31T15:14:29;6.55;;;5.22;;
11018;SDS011;5563;52.296;6.806;2023-07-31T15:16:58;7.22;;;5.72;;
11018;SDS011;5563;52.296;6.806;2023-07-31T15:19:31;5.85;;;5.25;;
11018;SDS011;5563;52.296;6.806;2023-07-31T15:22:07;6.45;;;5.65;;
11018;SDS011;5563;52.296;6.806;2023-07-31T15:24:40;7.00;;;5.70;;
11018;SDS011;5563;52.296;6.806;2023-07-31T15:27:15;6.38;;;5.78;;
11018;SDS011;5563;52.296;6.806;2023-07-31T15:29:42;6.97;;;6.25;;
11018;SDS011;5563;52.296;6.806;2023-07-31T15:32:15;7.65;;;6.13;;
11018;SDS011;5563;52.296;6.806;2023-07-31T15:34:44;7.43;;;6.45;;
11018;SDS011;5563;52.296;6.806;2023-07-31T15:37:17;8.15;;;6.72;;
11018;SDS011;5563;52.296;6.806;2023-07-31T15:39:44;6.95;;;6.25;;